Time;durP1;ratioP1;P1;durP2;ratioP2;P2;SDS_P1;SDS_P2;PMS_P1;PMS_P2;Temp;Humidity;BMP_temperature;BMP_pressure;BME280_temperature;BME280_humidity;BME280_pressure;Samples;Min_cycle;Max_cycle;Signal;HPM_P1;HPM_P2
2022/05/26 00:01:37;;;;;;;;;;;;;;;;;;5095775;28;19917;-90
2022/05/26 00:04:03;;;;;;;;;;;;;;;;;;5095683;28;19916;-91
2022/05/26 00:06:29;;;;;;;;;;;;;;;;;;5096126;28;19923;-93
2022/05/26 00:08:55;;;;;;;;;;;;;;;;;;5095805;28;19946;-90
2022/05/26 00:11:26;;;;;;;;;;;;;;;;;;5095326;28;19916;-92
2022/05/26 00:13:52;;;;;;;;;;;;;;;;;;5095787;28;19952;-91
2022/05/26 00:16:18;;;;;;;;;;;;;;;;;;5077285;28;19923;-90
2022/05/26 00:18:44;;;;;;;;;;;;;;;;;;5095320;28;19923;-91
2022/05/26 00:21:09;;;;;;;;;;;;;;;;;;5077223;28;19917;-90
2022/05/26 00:23:34;;;;;;;;;;;;;;;;;;5095297;28;20280;-92
2022/05/26 00:26:00;;;;;;;;;;;;;;;;;;5095240;28;19916;-92
2022/05/26 00:28:26;;;;;;;;;;;;;;;;;;5095261;28;20388;-95
2022/05/26 00:30:53;;;;;;;;;;;;;;;;;;5095257;28;19916;-90
2022/05/26 00:33:19;;;;;;;;;;;;;;;;;;5094985;28;20041;-90
2022/05/26 00:35:45;;;;;;;;;;;;;;;;;;5076932;28;19920;-89
2022/05/26 00:38:12;;;;;;;;;;;;;;;;;;5094932;28;20379;-91
2022/05/26 00:40:38;;;;;;;;;;;;;;;;;;5094870;28;19916;-90
2022/05/26 00:43:04;;;;;;;;;;;;;;;;;;5095142;28;20014;-89
2022/05/26 00:45:32;;;;;;;;;;;;;;;;;;5094790;28;20401;-89
2022/05/26 00:47:58;;;;;;;;;;;;;;;;;;5094810;28;19920;-91
2022/05/26 00:50:25;;;;;;;;;;;;;;;;;;5095156;28;19962;-92
2022/05/26 00:52:53;;;;;;;;;;;;;;;;;;5094994;28;19916;-91
2022/05/26 00:55:25;;;;;;;;;;;;;;;;;;5095239;28;19916;-90
2022/05/26 00:57:54;;;;;;;;;;;;;;;;;;5094914;28;19923;-93
2022/05/26 01:00:21;;;;;;;;;;;;;;;;;;5098721;28;19920;-94
2022/05/26 01:02:52;;;;;;;;;;;;;;;;;;5094159;28;19916;-94
2022/05/26 01:05:21;;;;;;;;;;;;;;;;;;5079309;28;19923;-90
2022/05/26 01:07:47;;;;;;;;;;;;;;;;;;5074485;28;20291;-91
2022/05/26 01:10:13;;;;;;;;;;;;;;;;;;5073807;28;19916;-91
2022/05/26 01:12:38;;;;;;;;;;;;;;;;;;5076027;28;19923;-91
2022/05/26 01:15:11;;;;;;;;;;;;;;;;;;5074212;28;19935;-91
2022/05/26 01:17:56;;;;;;;;;;;;;;;;;;5074013;28;20058;-91
2022/05/26 01:20:21;;;;;;;;;;;;;;;;;;5075883;28;19924;-92
2022/05/26 01:22:46;;;;;;;;;;;;;;;;;;5074107;28;19917;-91
2022/05/26 01:25:18;;;;;;;;;;;;;;;;;;5075509;28;19921;-92
2022/05/26 01:27:45;;;;;;;;;;;;;;;;;;5077212;28;19917;-92
2022/05/26 01:30:23;;;;;;;;;;;;;;;;;;5074289;28;20372;-90
2022/05/26 01:32:54;;;;;;;;;;;;;;;;;;5073997;28;19916;-89
2022/05/26 01:35:29;;;;;;;;;;;;;;;;;;5074107;28;19923;-91
2022/05/26 01:37:58;;;;;;;;;;;;;;;;;;5075012;28;19943;-90
2022/05/26 01:40:28;;;;;;;;;;;;;;;;;;5074355;28;20356;-90
2022/05/26 01:43:00;;;;;;;;;;;;;;;;;;5073975;28;19962;-91
2022/05/26 01:45:37;;;;;;;;;;;;;;;;;;5073991;28;20003;-90
2022/05/26 01:48:21;;;;;;;;;;;;;;;;;;5072732;28;19942;-92
2022/05/26 01:50:51;;;;;;;;;;;;;;;;;;5072762;28;20359;-90
2022/05/26 01:53:19;;;;;;;;;;;;;;;;;;5073112;28;20345;-90
2022/05/26 01:56:09;;;;;;;;;;;;;;;;;;5073769;28;19967;-91
2022/05/26 01:58:40;;;;;;;;;;;;;;;;;;5064710;28;20414;-91
2022/05/26 02:01:11;;;;;;;;;;;;;;;;;;5075310;28;19942;-91
2022/05/26 02:03:37;;;;;;;;;;;;;;;;;;5074876;28;19924;-91
2022/05/26 02:06:23;;;;;;;;;;;;;;;;;;5074148;28;20296;-93
2022/05/26 02:08:58;;;;;;;;;;;;;;;;;;5074506;28;19958;-91
2022/05/26 02:11:24;;;;;;;;;;;;;;;;;;5075389;28;19917;-94
2022/05/26 02:13:56;;;;;;;;;;;;;;;;;;5076159;28;19916;-90
2022/05/26 02:16:30;;;;;;;;;;;;;;;;;;5074341;28;20280;-91
2022/05/26 02:18:59;;;;;;;;;;;;;;;;;;5076184;28;19917;-92
2022/05/26 02:21:30;;;;;;;;;;;;;;;;;;5075401;28;19917;-90
2022/05/26 02:24:01;;;;;;;;;;;;;;;;;;5076252;28;20367;-91
2022/05/26 02:26:28;;;;;;;;;;;;;;;;;;5076449;28;20019;-91
2022/05/26 02:31:40;;;;;;;;;;;;;;;;;;5074947;28;19923;-95
2022/05/26 02:34:06;;;;;;;;;;;;;;;;;;5073696;28;19927;-92
2022/05/26 02:36:33;;;;;;;;;;;;;;;;;;5072352;28;19916;-92
2022/05/26 02:38:58;;;;;;;;;;;;;;;;;;5073805;28;19917;-91
2022/05/26 02:41:24;;;;;;;;;;;;;;;;;;5072944;28;19923;-90
2022/05/26 02:43:50;;;;;;;;;;;;;;;;;;5056121;28;19916;-90
2022/05/26 02:46:34;;;;;;;;;;;;;;;;;;5074364;28;19920;-92
2022/05/26 02:49:06;;;;;;;;;;;;;;;;;;5078334;28;19983;-90
2022/05/26 02:51:47;;;;;;;;;;;;;;;;;;5076685;28;19986;-91
2022/05/26 02:54:23;;;;;;;;;;;;;;;;;;5075989;28;19925;-94
2022/05/26 02:57:07;;;;;;;;;;;;;;;;;;5077144;28;19967;-90
2022/05/26 02:59:36;;;;;;;;;;;;;;;;;;5077092;28;19923;-93
2022/05/26 03:02:07;;;;;;;;;;;;;;;;;;5075878;28;20261;-93
2022/05/26 03:04:35;;;;;;;;;;;;;;;;;;5076819;28;19943;-93
2022/05/26 03:07:07;;;;;;;;;;;;;;;;;;5077505;28;20011;-91
2022/05/26 03:09:33;;;;;;;;;;;;;;;;;;5076585;28;19960;-93
2022/05/26 03:11:59;;;;;;;;;;;;;;;;;;5076977;28;20400;-91
2022/05/26 03:14:25;;;;;;;;;;;;;;;;;;5076786;28;19948;-88
2022/05/26 03:16:51;;;;;;;;;;;;;;;;;;5077795;28;19912;-91
2022/05/26 03:19:17;;;;;;;;;;;;;;;;;;5077255;28;19923;-93
2022/05/26 03:21:43;;;;;;;;;;;;;;;;;;5096972;28;19916;-93
2022/05/26 03:24:09;;;;;;;;;;;;;;;;;;5096508;28;19915;-91
2022/05/26 03:26:34;;;;;;;;;;;;;;;;;;5097735;28;19916;-91
2022/05/26 03:28:59;;;;;;;;;;;;;;;;;;5097988;28;19931;-94
2022/05/26 03:31:25;;;;;;;;;;;;;;;;;;5079040;28;19924;-94
2022/05/26 03:42:11;;;;;;;;;;;;;;;;;;5096789;28;19927;-92
2022/05/26 03:44:37;;;;;;;;;;;;;;;;;;5078519;28;20011;-95
2022/05/26 03:47:02;;;;;;;;;;;;;;;;;;5095252;28;20008;-91
2022/05/26 03:49:28;;;;;;;;;;;;;;;;;;5093164;28;19924;-91
2022/05/26 03:51:53;;;;;;;;;;;;;;;;;;5107131;28;19916;-92
2022/05/26 03:54:19;;;;;;;;;;;;;;;;;;5117033;28;19989;-93
2022/05/26 03:56:44;;;;;;;;;;;;;;;;;;5116824;28;19920;-90
2022/05/26 03:59:10;;;;;;;;;;;;;;;;;;5118158;28;19938;-92
2022/05/26 04:01:35;;;;;;;;;;;;;;;;;;5102266;28;20405;-94
2022/05/26 04:04:01;;;;;;;;;;;;;;;;;;5096929;28;19916;-91
2022/05/26 04:06:27;;;;;;;;;;;;;;;;;;5096762;28;19916;-91
2022/05/26 04:08:53;;;;;;;;;;;;;;;;;;5097184;28;20380;-90
2022/05/26 04:11:19;;;;;;;;;;;;;;;;;;5077913;28;19923;-90
2022/05/26 04:13:44;;;;;;;;;;;;;;;;;;5095556;28;19943;-91
2022/05/26 04:16:09;;;;;;;;;;;;;;;;;;5095347;28;19934;-93
2022/05/26 04:18:36;;;;;;;;;;;;;;;;;;5095325;28;19930;-93
2022/05/26 04:21:05;;;;;;;;;;;;;;;;;;5092805;28;19928;-91
2022/05/26 04:23:31;;;;;;;;;;;;;;;;;;5092245;28;20431;-91
2022/05/26 04:25:56;;;;;;;;;;;;;;;;;;5099628;28;20023;-88
2022/05/26 04:28:22;;;;;;;;;;;;;;;;;;5114479;28;20371;-91
2022/05/26 04:30:47;;;;;;;;;;;;;;;;;;5115621;27;19923;-88
2022/05/26 04:33:13;;;;;;;;;;;;;;;;;;5096672;28;20002;-88
2022/05/26 04:35:38;;;;;;;;;;;;;;;;;;5115124;28;20371;-86
2022/05/26 04:38:03;;;;;;;;;;;;;;;;;;5114826;28;19912;-87
2022/05/26 04:40:29;;;;;;;;;;;;;;;;;;5096816;28;20417;-87
2022/05/26 04:42:54;;;;;;;;;;;;;;;;;;5115155;28;19960;-88
2022/05/26 04:45:20;;;;;;;;;;;;;;;;;;5114504;28;19912;-87
2022/05/26 04:47:45;;;;;;;;;;;;;;;;;;5114849;28;20295;-87
2022/05/26 04:50:11;;;;;;;;;;;;;;;;;;5114874;28;19923;-89
2022/05/26 04:52:37;;;;;;;;;;;;;;;;;;5115131;28;19915;-87
2022/05/26 04:55:03;;;;;;;;;;;;;;;;;;5114771;28;19919;-87
2022/05/26 04:57:29;;;;;;;;;;;;;;;;;;5114400;28;19920;-88
2022/05/26 04:59:55;;;;;;;;;;;;;;;;;;5113746;28;19920;-88
2022/05/26 05:02:21;;;;;;;;;;;;;;;;;;5111508;28;20387;-90
2022/05/26 05:04:48;;;;;;;;;;;;;;;;;;5092993;28;19924;-88
2022/05/26 05:07:15;;;;;;;;;;;;;;;;;;5076354;28;19938;-87
2022/05/26 05:09:41;;;;;;;;;;;;;;;;;;5093266;28;19916;-90
2022/05/26 05:12:07;;;;;;;;;;;;;;;;;;5094203;28;20333;-94
2022/05/26 05:14:52;;;;;;;;;;;;;;;;;;5094504;28;19916;-90
2022/05/26 05:17:18;;;;;;;;;;;;;;;;;;5094598;28;19919;-88
2022/05/26 05:19:44;;;;;;;;;;;;;;;;;;5094510;28;19916;-93
2022/05/26 05:22:18;;;;;;;;;;;;;;;;;;5095466;28;19920;-90
2022/05/26 05:24:50;;;;;;;;;;;;;;;;;;5094789;28;20360;-94
2022/05/26 05:27:18;;;;;;;;;;;;;;;;;;5091370;28;20368;-94
2022/05/26 05:29:44;;;;;;;;;;;;;;;;;;5073054;28;20074;-90
2022/05/26 05:32:22;;;;;;;;;;;;;;;;;;5091550;28;19916;-91
2022/05/26 05:34:50;;;;;;;;;;;;;;;;;;5094476;28;19916;-93
2022/05/26 05:37:15;;;;;;;;;;;;;;;;;;5095137;28;19938;-91
2022/05/26 05:39:43;;;;;;;;;;;;;;;;;;5093870;28;21254;-93
2022/05/26 05:42:08;;;;;;;;;;;;;;;;;;5094449;28;19920;-89
2022/05/26 05:44:34;;;;;;;;;;;;;;;;;;5095210;28;19970;-92
2022/05/26 05:47:01;;;;;;;;;;;;;;;;;;5093871;28;19917;-88
2022/05/26 05:49:31;;;;;;;;;;;;;;;;;;5093361;28;19916;-92
2022/05/26 05:52:02;;;;;;;;;;;;;;;;;;5093712;28;19923;-88
2022/05/26 05:54:30;;;;;;;;;;;;;;;;;;5092990;28;19928;-87
2022/05/26 05:56:55;;;;;;;;;;;;;;;;;;5093185;28;19924;-91
2022/05/26 05:59:22;;;;;;;;;;;;;;;;;;5093458;28;19923;-91
2022/05/26 06:01:47;;;;;;;;;;;;;;;;;;5095090;28;19916;-92
2022/05/26 06:04:12;;;;;;;;;;;;;;;;;;5094104;28;19916;-89
2022/05/26 06:06:41;;;;;;;;;;;;;;;;;;5093690;28;19920;-94
2022/05/26 06:09:07;;;;;;;;;;;;;;;;;;5092435;28;19924;-91
2022/05/26 06:11:33;;;;;;;;;;;;;;;;;;5075480;28;19923;-90
2022/05/26 06:13:59;;;;;;;;;;;;;;;;;;5093404;28;19916;-88
2022/05/26 06:16:25;;;;;;;;;;;;;;;;;;5095520;28;19923;-94
2022/05/26 06:18:50;;;;;;;;;;;;;;;;;;5095015;28;19916;-91
2022/05/26 06:21:16;;;;;;;;;;;;;;;;;;5098201;28;19916;-91
2022/05/26 06:23:42;;;;;;;;;;;;;;;;;;5098928;28;19969;-89
2022/05/26 06:26:07;;;;;;;;;;;;;;;;;;5098402;28;19920;-90
2022/05/26 06:31:20;;;;;;;;;;;;;;;;;;5098343;28;19923;-87
2022/05/26 06:39:13;;;;;;;;;;;;;;;;;;5097411;28;19958;-89
2022/05/26 06:44:22;;;;;;;;;;;;;;;;;;5077430;28;20338;-89
2022/05/26 06:46:48;;;;;;;;;;;;;;;;;;5079646;28;19916;-89
2022/05/26 06:49:13;;;;;;;;;;;;;;;;;;5078720;28;19970;-89
2022/05/26 06:51:39;;;;;;;;;;;;;;;;;;5077605;28;19942;-92
2022/05/26 06:54:05;;;;;;;;;;;;;;;;;;5077430;28;19920;-89
2022/05/26 06:56:31;;;;;;;;;;;;;;;;;;5089321;28;19924;-90
2022/05/26 06:58:56;;;;;;;;;;;;;;;;;;5084575;28;19920;-92
2022/05/26 07:01:22;;;;;;;;;;;;;;;;;;5087086;28;19927;-89
2022/05/26 07:03:47;;;;;;;;;;;;;;;;;;5086917;28;20062;-89
2022/05/26 07:06:17;;;;;;;;;;;;;;;;;;5111580;28;19961;-90
2022/05/26 07:08:46;;;;;;;;;;;;;;;;;;5095029;28;20034;-90
2022/05/26 07:11:12;;;;;;;;;;;;;;;;;;5086638;28;19947;-91
2022/05/26 07:13:38;;;;;;;;;;;;;;;;;;5090958;28;19920;-91
2022/05/26 07:16:04;;;;;;;;;;;;;;;;;;5095849;28;20011;-90
2022/05/26 07:18:29;;;;;;;;;;;;;;;;;;5096101;28;19967;-90
2022/05/26 07:20:55;;;;;;;;;;;;;;;;;;5096253;28;20280;-89
2022/05/26 07:23:21;;;;;;;;;;;;;;;;;;5096252;28;20306;-90
2022/05/26 07:25:46;;;;;;;;;;;;;;;;;;5095940;28;19916;-89
2022/05/26 07:28:14;;;;;;;;;;;;;;;;;;5095935;28;19969;-90
2022/05/26 07:30:40;;;;;;;;;;;;;;;;;;5095471;28;19955;-89
2022/05/26 07:33:05;;;;;;;;;;;;;;;;;;5111116;28;19977;-90
2022/05/26 07:35:31;;;;;;;;;;;;;;;;;;5094114;28;19920;-89
2022/05/26 07:43:25;;;;;;;;;;;;;;;;;;5081228;28;19982;-89
2022/05/26 07:45:51;;;;;;;;;;;;;;;;;;5087193;28;20287;-90
2022/05/26 07:48:16;;;;;;;;;;;;;;;;;;5095477;28;19920;-89
2022/05/26 07:50:42;;;;;;;;;;;;;;;;;;5094826;28;19916;-89
2022/05/26 07:53:07;;;;;;;;;;;;;;;;;;5074962;28;19916;-88
2022/05/26 07:55:33;;;;;;;;;;;;;;;;;;5093510;28;20388;-88
2022/05/26 07:57:59;;;;;;;;;;;;;;;;;;5096057;28;19942;-88
2022/05/26 08:00:25;;;;;;;;;;;;;;;;;;5077413;28;19982;-87
2022/05/26 08:02:50;;;;;;;;;;;;;;;;;;5088277;28;20294;-89
2022/05/26 08:05:15;;;;;;;;;;;;;;;;;;5082348;28;19920;-91
2022/05/26 08:07:43;;;;;;;;;;;;;;;;;;5086675;28;19920;-90
2022/05/26 08:10:09;;;;;;;;;;;;;;;;;;5085972;28;20402;-90
2022/05/26 08:12:34;;;;;;;;;;;;;;;;;;5095101;28;19920;-87
2022/05/26 08:14:59;;;;;;;;;;;;;;;;;;5095204;28;19975;-90
2022/05/26 08:17:25;;;;;;;;;;;;;;;;;;5094903;28;20324;-89
2022/05/26 08:19:51;;;;;;;;;;;;;;;;;;5094679;28;19920;-89
2022/05/26 08:22:17;;;;;;;;;;;;;;;;;;5094233;28;19920;-91
2022/05/26 08:24:48;;;;;;;;;;;;;;;;;;5092434;28;19967;-90
2022/05/26 08:27:13;;;;;;;;;;;;;;;;;;5095666;28;19916;-91
2022/05/26 08:29:41;;;;;;;;;;;;;;;;;;5093662;28;19916;-88
2022/05/26 08:32:06;;;;;;;;;;;;;;;;;;5093357;28;20421;-94
2022/05/26 08:34:32;;;;;;;;;;;;;;;;;;5092859;28;20011;-89
2022/05/26 08:36:57;;;;;;;;;;;;;;;;;;5092837;28;20017;-90
2022/05/26 08:39:23;;;;;;;;;;;;;;;;;;5093764;28;19917;-91
2022/05/26 08:41:50;;;;;;;;;;;;;;;;;;5094226;28;19995;-88
2022/05/26 08:44:30;;;;;;;;;;;;;;;;;;5092783;28;19922;-89
2022/05/26 08:47:06;;;;;;;;;;;;;;;;;;5093691;28;19920;-91
2022/05/26 08:49:38;;;;;;;;;;;;;;;;;;5094399;28;19916;-88
2022/05/26 08:52:13;;;;;;;;;;;;;;;;;;5093889;28;19915;-88
2022/05/26 08:54:50;;;;;;;;;;;;;;;;;;5109530;28;20361;-88
2022/05/26 08:57:20;;;;;;;;;;;;;;;;;;5094079;28;20362;-88
2022/05/26 08:59:46;;;;;;;;;;;;;;;;;;5093842;28;19939;-89
2022/05/26 09:02:38;;;;;;;;;;;;;;;;;;5093938;28;19978;-92
2022/05/26 09:05:11;;;;;;;;;;;;;;;;;;5085788;28;19912;-88
2022/05/26 09:13:27;;;;;;;;;;;;;;;;;;5095122;28;19924;-88
2022/05/26 09:15:52;;;;;;;;;;;;;;;;;;5094370;28;20011;-89
2022/05/26 09:18:19;;;;;;;;;;;;;;;;;;5075968;28;19951;-88
2022/05/26 09:20:46;;;;;;;;;;;;;;;;;;5094583;28;20407;-89
2022/05/26 09:23:13;;;;;;;;;;;;;;;;;;5093919;28;19922;-90
2022/05/26 09:25:46;;;;;;;;;;;;;;;;;;5076711;28;19970;-89
2022/05/26 09:28:13;;;;;;;;;;;;;;;;;;5094915;28;19962;-88
2022/05/26 09:30:40;;;;;;;;;;;;;;;;;;5094269;28;19956;-88
2022/05/26 09:33:19;;;;;;;;;;;;;;;;;;5089006;28;19980;-87
2022/05/26 09:35:45;;;;;;;;;;;;;;;;;;5095254;28;19920;-88
2022/05/26 09:38:15;;;;;;;;;;;;;;;;;;5077645;28;19912;-89
2022/05/26 09:40:41;;;;;;;;;;;;;;;;;;5095940;28;20260;-90
2022/05/26 09:43:08;;;;;;;;;;;;;;;;;;5096187;28;19919;-88
2022/05/26 09:45:44;;;;;;;;;;;;;;;;;;5095880;28;19916;-91
2022/05/26 09:48:26;;;;;;;;;;;;;;;;;;5077571;28;19923;-89
2022/05/26 09:51:05;;;;;;;;;;;;;;;;;;5077763;28;20061;-88
2022/05/26 09:53:33;;;;;;;;;;;;;;;;;;5091584;28;19978;-88
2022/05/26 09:55:59;;;;;;;;;;;;;;;;;;5098410;28;19962;-89
2022/05/26 09:58:34;;;;;;;;;;;;;;;;;;5102731;28;19912;-88
2022/05/26 10:01:03;;;;;;;;;;;;;;;;;;5099851;28;19927;-89
2022/05/26 10:04:01;;;;;;;;;;;;;;;;;;5091578;28;19947;-88
2022/05/26 10:06:32;;;;;;;;;;;;;;;;;;5038020;28;19995;-88
2022/05/26 10:09:01;;;;;;;;;;;;;;;;;;5092165;28;19927;-89
2022/05/26 10:11:35;;;;;;;;;;;;;;;;;;5097925;28;20355;-88
2022/05/26 10:14:08;;;;;;;;;;;;;;;;;;5097790;28;20287;-89
2022/05/26 10:16:46;;;;;;;;;;;;;;;;;;5107261;28;19924;-86
2022/05/26 10:19:14;;;;;;;;;;;;;;;;;;5115746;28;19966;-86
2022/05/26 10:21:43;;;;;;;;;;;;;;;;;;5113971;28;19962;-88
2022/05/26 10:24:11;;;;;;;;;;;;;;;;;;5098032;28;19916;-84
2022/05/26 10:26:53;;;;;;;;;;;;;;;;;;5097359;28;19916;-87
2022/05/26 10:29:21;;;;;;;;;;;;;;;;;;5098163;28;19916;-87
2022/05/26 10:32:08;;;;;;;;;;;;;;;;;;5098031;28;19935;-86
2022/05/26 10:34:41;;;;;;;;;;;;;;;;;;5098247;28;19920;-86
2022/05/26 10:37:10;;;;;;;;;;;;;;;;;;5097137;28;19916;-88
2022/05/26 10:39:52;;;;;;;;;;;;;;;;;;5097814;28;20506;-86
2022/05/26 10:42:33;;;;;;;;;;;;;;;;;;5097328;28;19920;-87
2022/05/26 10:45:17;;;;;;;;;;;;;;;;;;5097544;28;20061;-88
2022/05/26 10:47:59;;;;;;;;;;;;;;;;;;5097325;28;19924;-87
2022/05/26 10:50:27;;;;;;;;;;;;;;;;;;5097448;28;19923;-90
2022/05/26 10:53:01;;;;;;;;;;;;;;;;;;5097502;28;20213;-87
2022/05/26 10:55:34;;;;;;;;;;;;;;;;;;5097297;28;19981;-88
2022/05/26 10:58:03;;;;;;;;;;;;;;;;;;5079018;28;20299;-88
2022/05/26 11:00:30;;;;;;;;;;;;;;;;;;5096883;28;19938;-87
2022/05/26 11:03:07;;;;;;;;;;;;;;;;;;5096312;28;19916;-88
2022/05/26 11:05:38;;;;;;;;;;;;;;;;;;5095902;28;19916;-89
2022/05/26 11:08:23;;;;;;;;;;;;;;;;;;5100491;28;19916;-91
2022/05/26 11:11:07;;;;;;;;;;;;;;;;;;5079708;28;19916;-89
2022/05/26 11:13:33;;;;;;;;;;;;;;;;;;5096560;28;19926;-90
2022/05/26 11:18:50;;;;;;;;;;;;;;;;;;5097507;28;19926;-89
2022/05/26 11:21:21;;;;;;;;;;;;;;;;;;5079355;28;19912;-88
2022/05/26 11:23:47;;;;;;;;;;;;;;;;;;5098125;28;20022;-89
2022/05/26 11:26:22;;;;;;;;;;;;;;;;;;5097315;28;19981;-90
2022/05/26 11:29:00;;;;;;;;;;;;;;;;;;5097284;28;20290;-90
2022/05/26 11:37:23;;;;;;;;;;;;;;;;;;5097930;28;19927;-90
2022/05/26 11:39:52;;;;;;;;;;;;;;;;;;5097795;28;20298;-89
2022/05/26 11:42:26;;;;;;;;;;;;;;;;;;5095735;28;19920;-87
2022/05/26 11:44:56;;;;;;;;;;;;;;;;;;5095279;28;19985;-88
2022/05/26 11:47:31;;;;;;;;;;;;;;;;;;5095390;28;19916;-86
2022/05/26 11:49:56;;;;;;;;;;;;;;;;;;5095664;28;20279;-87
2022/05/26 11:52:34;;;;;;;;;;;;;;;;;;5093804;28;19917;-88
2022/05/26 11:55:06;;;;;;;;;;;;;;;;;;5094848;28;19970;-88
2022/05/26 11:57:38;;;;;;;;;;;;;;;;;;5095370;28;20315;-89
2022/05/26 12:00:17;;;;;;;;;;;;;;;;;;5094760;28;20057;-87
2022/05/26 12:02:45;;;;;;;;;;;;;;;;;;5095330;28;19920;-89
2022/05/26 12:05:29;;;;;;;;;;;;;;;;;;5096163;28;19923;-92
2022/05/26 12:08:02;;;;;;;;;;;;;;;;;;5090217;28;19935;-87
2022/05/26 12:10:28;;;;;;;;;;;;;;;;;;5091123;28;19951;-89
2022/05/26 12:13:32;;;;;;;;;;;;;;;;;;5076644;28;19912;-89
2022/05/26 12:16:20;;;;;;;;;;;;;;;;;;5002833;28;19975;-88
2022/05/26 12:18:48;;;;;;;;;;;;;;;;;;5000223;28;19925;-91
2022/05/26 12:21:15;;;;;;;;;;;;;;;;;;5012808;28;19921;-88
2022/05/26 12:23:42;;;;;;;;;;;;;;;;;;4986064;28;19982;-89
2022/05/26 12:26:28;;;;;;;;;;;;;;;;;;5008470;28;19926;-89
2022/05/26 12:29:14;;;;;;;;;;;;;;;;;;4979997;28;19926;-88
2022/05/26 12:32:00;;;;;;;;;;;;;;;;;;4981333;28;19929;-87
2022/05/26 12:34:26;;;;;;;;;;;;;;;;;;5005760;28;19925;-90
2022/05/26 12:36:54;;;;;;;;;;;;;;;;;;4999061;28;19928;-89
2022/05/26 12:39:43;;;;;;;;;;;;;;;;;;5014763;28;19928;-89
2022/05/26 12:42:27;;;;;;;;;;;;;;;;;;5007799;28;20294;-90
2022/05/26 12:45:01;;;;;;;;;;;;;;;;;;4992604;28;20385;-90
2022/05/26 12:47:46;;;;;;;;;;;;;;;;;;4993299;28;19922;-88
2022/05/26 12:50:22;;;;;;;;;;;;;;;;;;5054178;28;19935;-90
2022/05/26 12:53:21;;;;;;;;;;;;;;;;;;5102639;28;19900;-91
2022/05/26 12:55:57;;;;;;;;;;;;;;;;;;5083235;28;19944;-90
2022/05/26 12:58:28;;;;;;;;;;;;;;;;;;5079454;28;19916;-91
2022/05/26 13:01:23;;;;;;;;;;;;;;;;;;5093932;28;19905;-93
2022/05/26 13:10:15;;;;;;;;;;;;;;;;;;5095651;28;19930;-91
2022/05/26 13:16:21;;;;;;;;;;;;;;;;;;5052135;28;20007;-91
2022/05/26 13:19:00;;;;;;;;;;;;;;;;;;5055391;28;20012;-91
2022/05/26 13:21:30;;;;;;;;;;;;;;;;;;5019968;28;19927;-90
2022/05/26 13:23:55;;;;;;;;;;;;;;;;;;5033972;28;19917;-91
2022/05/26 13:26:21;;;;;;;;;;;;;;;;;;5032153;28;20004;-91
2022/05/26 13:28:49;;;;;;;;;;;;;;;;;;5035410;28;20432;-90
2022/05/26 13:34:01;;;;;;;;;;;;;;;;;;5028043;28;19928;-90
2022/05/26 13:36:31;;;;;;;;;;;;;;;;;;5034777;28;19916;-90
2022/05/26 13:39:03;;;;;;;;;;;;;;;;;;5031979;28;20026;-89
2022/05/26 13:41:29;;;;;;;;;;;;;;;;;;5034016;28;19921;-90
2022/05/26 13:43:55;;;;;;;;;;;;;;;;;;5036529;28;20592;-90
2022/05/26 13:46:29;;;;;;;;;;;;;;;;;;5035156;28;19925;-92
2022/05/26 13:48:59;;;;;;;;;;;;;;;;;;5037796;28;20401;-91
2022/05/26 13:51:38;;;;;;;;;;;;;;;;;;5072278;28;19966;-91
2022/05/26 13:54:13;;;;;;;;;;;;;;;;;;5077331;28;20357;-92
2022/05/26 13:56:42;;;;;;;;;;;;;;;;;;5087382;28;19924;-90
2022/05/26 13:59:11;;;;;;;;;;;;;;;;;;5078207;28;19967;-88
2022/05/26 14:01:41;;;;;;;;;;;;;;;;;;5090740;28;19974;-89
2022/05/26 14:04:19;;;;;;;;;;;;;;;;;;5091257;28;19920;-89
2022/05/26 14:06:44;;;;;;;;;;;;;;;;;;5093882;28;19924;-89
2022/05/26 14:09:27;;;;;;;;;;;;;;;;;;5099939;28;19937;-90
2022/05/26 14:12:15;;;;;;;;;;;;;;;;;;5103645;28;19916;-92
2022/05/26 14:15:17;;;;;;;;;;;;;;;;;;5114711;28;19980;-91
2022/05/26 14:17:48;;;;;;;;;;;;;;;;;;5116852;28;19947;-91
2022/05/26 14:20:24;;;;;;;;;;;;;;;;;;5114608;28;19921;-92
2022/05/26 14:25:47;;;;;;;;;;;;;;;;;;5095019;28;19912;-92
2022/05/26 14:28:28;;;;;;;;;;;;;;;;;;5087945;28;20019;-89
2022/05/26 14:31:06;;;;;;;;;;;;;;;;;;5091690;28;19980;-91
2022/05/26 14:33:49;;;;;;;;;;;;;;;;;;5080597;28;19901;-92
2022/05/26 14:36:15;;;;;;;;;;;;;;;;;;5086183;28;19940;-90
2022/05/26 14:38:43;;;;;;;;;;;;;;;;;;5075231;28;19917;-90
2022/05/26 14:41:39;;;;;;;;;;;;;;;;;;5095369;28;19905;-95
2022/05/26 14:44:10;;;;;;;;;;;;;;;;;;5099161;28;20006;-95
2022/05/26 14:46:46;;;;;;;;;;;;;;;;;;5093438;28;19916;-91
2022/05/26 14:49:13;;;;;;;;;;;;;;;;;;5074150;28;20415;-92
2022/05/26 14:51:38;;;;;;;;;;;;;;;;;;5078925;28;20004;-91
2022/05/26 14:56:50;;;;;;;;;;;;;;;;;;5075949;28;19990;-92
2022/05/26 14:59:16;;;;;;;;;;;;;;;;;;5090666;28;19924;-89
2022/05/26 15:01:42;;;;;;;;;;;;;;;;;;5096147;28;19920;-91
2022/05/26 15:04:07;;;;;;;;;;;;;;;;;;5094172;28;19987;-92
2022/05/26 15:07:00;;;;;;;;;;;;;;;;;;5108690;28;19955;-91
2022/05/26 15:09:28;;;;;;;;;;;;;;;;;;5093807;28;19916;-90
2022/05/26 15:11:54;;;;;;;;;;;;;;;;;;5104881;28;19976;-91
2022/05/26 15:14:20;;;;;;;;;;;;;;;;;;5109370;28;20368;-91
2022/05/26 15:16:47;;;;;;;;;;;;;;;;;;5086821;28;19916;-91
2022/05/26 15:19:17;;;;;;;;;;;;;;;;;;5107955;28;19919;-91
2022/05/26 15:21:44;;;;;;;;;;;;;;;;;;5106425;28;19922;-91
2022/05/26 15:24:09;;;;;;;;;;;;;;;;;;5107306;28;19947;-91
2022/05/26 15:26:35;;;;;;;;;;;;;;;;;;5105089;28;19924;-89
2022/05/26 15:29:01;;;;;;;;;;;;;;;;;;5105730;28;20394;-91
2022/05/26 15:31:26;;;;;;;;;;;;;;;;;;5101109;28;19966;-91
2022/05/26 15:33:52;;;;;;;;;;;;;;;;;;5101023;28;19916;-91
2022/05/26 15:36:22;;;;;;;;;;;;;;;;;;5079430;28;19920;-92
2022/05/26 15:38:50;;;;;;;;;;;;;;;;;;5099303;28;19961;-89
2022/05/26 15:41:16;;;;;;;;;;;;;;;;;;5090877;28;19928;-88
2022/05/26 15:43:41;;;;;;;;;;;;;;;;;;5081006;28;19916;-89
2022/05/26 15:46:09;;;;;;;;;;;;;;;;;;5080916;28;19963;-91
2022/05/26 15:48:35;;;;;;;;;;;;;;;;;;5096529;28;19938;-91
2022/05/26 15:51:00;;;;;;;;;;;;;;;;;;5097312;28;19920;-90
2022/05/26 15:53:29;;;;;;;;;;;;;;;;;;5098974;28;20303;-90
2022/05/26 15:55:58;;;;;;;;;;;;;;;;;;5100998;28;20042;-91
2022/05/26 15:58:26;;;;;;;;;;;;;;;;;;5097865;28;19924;-90
2022/05/26 16:00:55;;;;;;;;;;;;;;;;;;5098771;28;19927;-92
2022/05/26 16:03:21;;;;;;;;;;;;;;;;;;5077006;28;19912;-90
2022/05/26 16:05:47;;;;;;;;;;;;;;;;;;5096529;28;20018;-90
2022/05/26 16:08:12;;;;;;;;;;;;;;;;;;5102199;28;19958;-91
2022/05/26 16:10:38;;;;;;;;;;;;;;;;;;5084621;28;19961;-90
2022/05/26 16:13:06;;;;;;;;;;;;;;;;;;5088102;28;19916;-90
2022/05/26 16:15:31;;;;;;;;;;;;;;;;;;5106411;28;19916;-90
2022/05/26 16:17:57;;;;;;;;;;;;;;;;;;5106409;28;20290;-90
2022/05/26 16:20:24;;;;;;;;;;;;;;;;;;5108190;28;19920;-90
2022/05/26 16:22:57;;;;;;;;;;;;;;;;;;5105152;28;19980;-89
2022/05/26 16:25:24;;;;;;;;;;;;;;;;;;5106022;28;19916;-89
2022/05/26 16:27:51;;;;;;;;;;;;;;;;;;5106397;28;19923;-88
2022/05/26 16:30:25;;;;;;;;;;;;;;;;;;5107423;28;19950;-89
2022/05/26 16:32:54;;;;;;;;;;;;;;;;;;5103650;28;19924;-90
2022/05/26 16:38:05;;;;;;;;;;;;;;;;;;5097695;28;19927;-90
2022/05/26 16:40:31;;;;;;;;;;;;;;;;;;5102759;28;19931;-90
2022/05/26 16:42:58;;;;;;;;;;;;;;;;;;5100061;28;19920;-90
2022/05/26 16:45:26;;;;;;;;;;;;;;;;;;5086593;28;19975;-89
2022/05/26 16:47:57;;;;;;;;;;;;;;;;;;5084478;28;19927;-90
2022/05/26 16:50:28;;;;;;;;;;;;;;;;;;5108997;28;19916;-90
2022/05/26 16:52:54;;;;;;;;;;;;;;;;;;5106278;28;20020;-90
2022/05/26 16:55:25;;;;;;;;;;;;;;;;;;5107421;28;19931;-91
2022/05/26 16:57:51;;;;;;;;;;;;;;;;;;5102633;28;19924;-88
2022/05/26 17:00:19;;;;;;;;;;;;;;;;;;5101796;28;20280;-88
2022/05/26 17:02:57;;;;;;;;;;;;;;;;;;5104580;28;20315;-89
2022/05/26 17:05:31;;;;;;;;;;;;;;;;;;5097837;28;20174;-88
2022/05/26 17:07:58;;;;;;;;;;;;;;;;;;5080614;28;19916;-89
2022/05/26 17:10:27;;;;;;;;;;;;;;;;;;5082968;28;19916;-88
2022/05/26 17:21:11;;;;;;;;;;;;;;;;;;5098691;28;19954;-89
2022/05/26 17:23:38;;;;;;;;;;;;;;;;;;5095080;28;19927;-89
2022/05/26 17:26:04;;;;;;;;;;;;;;;;;;5094799;28;20391;-90
2022/05/26 17:28:30;;;;;;;;;;;;;;;;;;5094517;28;19922;-89
2022/05/26 17:30:57;;;;;;;;;;;;;;;;;;5095178;28;20173;-89
2022/05/26 17:33:24;;;;;;;;;;;;;;;;;;5090579;28;20382;-90
2022/05/26 17:35:51;;;;;;;;;;;;;;;;;;5084534;28;19941;-90
2022/05/26 17:38:16;;;;;;;;;;;;;;;;;;5096633;28;19926;-89
2022/05/26 17:40:42;;;;;;;;;;;;;;;;;;5087669;28;19924;-89
2022/05/26 17:43:13;;;;;;;;;;;;;;;;;;5095830;28;19924;-90
2022/05/26 17:45:43;;;;;;;;;;;;;;;;;;5086482;28;19924;-90
2022/05/26 17:48:09;;;;;;;;;;;;;;;;;;5091166;28;19924;-91
2022/05/26 17:50:40;;;;;;;;;;;;;;;;;;5070205;28;19920;-90
2022/05/26 17:53:07;;;;;;;;;;;;;;;;;;5100301;28;19924;-89
2022/05/26 17:55:33;;;;;;;;;;;;;;;;;;5103290;28;19920;-90
2022/05/26 17:58:04;;;;;;;;;;;;;;;;;;5108912;28;19949;-90
2022/05/26 18:00:57;;;;;;;;;;;;;;;;;;5103620;28;19931;-90
2022/05/26 18:03:24;;;;;;;;;;;;;;;;;;5104226;28;20437;-89
2022/05/26 18:05:50;;;;;;;;;;;;;;;;;;5106199;28;20300;-89
2022/05/26 18:08:16;;;;;;;;;;;;;;;;;;5084792;28;19920;-90
2022/05/26 18:10:45;;;;;;;;;;;;;;;;;;5106159;28;19917;-89
2022/05/26 18:13:13;;;;;;;;;;;;;;;;;;5100941;28;20501;-90
2022/05/26 18:15:42;;;;;;;;;;;;;;;;;;5095701;28;19951;-90